createdAt,value
2022-10-17T00:01:08.316Z,99087.47
2022-10-17T00:03:38.306Z,99102.84
2022-10-17T00:06:08.312Z,99126.59
2022-10-17T00:08:36.666Z,99132.91
2022-10-17T00:11:07.566Z,99133.53
2022-10-17T00:13:36.274Z,99151.81
2022-10-17T00:16:04.432Z,99152.59
2022-10-17T00:18:34.083Z,99162.34
2022-10-17T00:21:02.204Z,99176.75
2022-10-17T00:23:30.683Z,99181.22
2022-10-17T00:26:02.168Z,99192.78
2022-10-17T00:28:30.429Z,99205.16
2022-10-17T00:30:59.597Z,99213.09
2022-10-17T00:33:28.035Z,99209.00
2022-10-17T00:36:07.247Z,99206.59
2022-10-17T00:38:35.443Z,99231.72
2022-10-17T00:41:04.084Z,99226.84
2022-10-17T00:43:51.263Z,99239.81
2022-10-17T00:46:19.744Z,99240.03
2022-10-17T00:48:49.928Z,99252.19
2022-10-17T00:51:22.322Z,99262.56
2022-10-17T00:53:51.980Z,99259.94
2022-10-17T00:56:22.241Z,99277.38
2022-10-17T00:58:50.778Z,99266.41
2022-10-17T01:01:19.022Z,99277.78
2022-10-17T01:03:47.551Z,99283.25
2022-10-17T01:06:15.775Z,99289.13
2022-10-17T01:08:45.411Z,99289.72
2022-10-17T01:11:26.611Z,99304.75
2022-10-17T01:14:03.794Z,99308.41
2022-10-17T01:16:40.862Z,99303.38
2022-10-17T01:19:46.562Z,99311.06
2022-10-17T01:22:20.579Z,99335.41
2022-10-17T01:25:12.666Z,99334.41
2022-10-17T01:28:05.919Z,99329.31
2022-10-17T01:31:04.655Z,99356.53
2022-10-17T01:33:46.166Z,99356.97
2022-10-17T01:36:24.156Z,99359.00
2022-10-17T01:38:58.690Z,99369.94
2022-10-17T01:41:35.756Z,99359.78
2022-10-17T01:44:10.182Z,99362.44
2022-10-17T01:46:42.032Z,99381.94
2022-10-17T01:49:12.468Z,99388.03
2022-10-17T01:51:44.803Z,99383.09
2022-10-17T01:54:17.826Z,99391.19
2022-10-17T01:56:49.793Z,99405.88
2022-10-17T01:59:23.571Z,99410.13
2022-10-17T02:01:56.544Z,99418.03
2022-10-17T02:04:26.068Z,99432.28
2022-10-17T02:06:54.198Z,99441.00
2022-10-17T02:09:25.129Z,99449.50
2022-10-17T02:12:16.716Z,99457.84
2022-10-17T02:15:01.721Z,99435.28
2022-10-17T02:17:45.070Z,99444.59
2022-10-17T02:20:21.464Z,99462.28
2022-10-17T02:22:56.352Z,99481.97
2022-10-17T02:25:36.176Z,99502.25
2022-10-17T02:28:17.442Z,99479.09
2022-10-17T02:30:51.278Z,99493.72
2022-10-17T02:33:26.029Z,99491.50
2022-10-17T02:35:59.125Z,99505.16
2022-10-17T02:38:30.830Z,99487.47
2022-10-17T02:40:59.307Z,99514.69
2022-10-17T02:43:28.186Z,99510.00
2022-10-17T02:45:57.998Z,99524.19
2022-10-17T02:48:32.356Z,99521.97
2022-10-17T02:51:06.731Z,99515.09
2022-10-17T02:53:40.234Z,99510.78
2022-10-17T02:56:17.876Z,99533.97
2022-10-17T02:58:50.659Z,99529.91
2022-10-17T03:01:20.295Z,99525.44
2022-10-17T03:03:49.983Z,99528.66
2022-10-17T03:06:18.317Z,99542.94
2022-10-17T03:08:46.413Z,99544.94
2022-10-17T03:11:14.588Z,99533.97
2022-10-17T03:13:42.710Z,99541.69
2022-10-17T03:16:10.752Z,99547.78
2022-10-17T03:18:38.829Z,99543.50
2022-10-17T03:21:08.463Z,99550.63
2022-10-17T03:23:36.553Z,99555.69
2022-10-17T03:26:05.138Z,99566.47
2022-10-17T03:28:33.510Z,99558.97
2022-10-17T03:31:07.408Z,99560.78
2022-10-17T03:33:35.549Z,99565.69
2022-10-17T03:36:09.039Z,99580.53
2022-10-17T03:38:37.403Z,99580.91
2022-10-17T03:41:06.132Z,99598.59
2022-10-17T03:43:34.816Z,99578.69
2022-10-17T03:46:03.387Z,99590.47
2022-10-17T03:48:32.276Z,99575.25
2022-10-17T03:51:02.023Z,99600.84
2022-10-17T03:53:31.565Z,99584.19
2022-10-17T03:56:10.713Z,99585.00
2022-10-17T03:58:38.825Z,99573.63
2022-10-17T04:01:07.144Z,99586.03
2022-10-17T04:03:35.310Z,99606.34
2022-10-17T04:06:04.853Z,99604.88
2022-10-17T04:08:36.122Z,99602.69
2022-10-17T04:11:07.679Z,99602.88
2022-10-17T04:13:36.485Z,99618.53
2022-10-17T04:16:07.246Z,99617.09
2022-10-17T04:18:35.578Z,99648.97
2022-10-17T04:21:04.014Z,99626.03
2022-10-17T04:23:32.174Z,99632.34
2022-10-17T04:26:03.556Z,99655.88
2022-10-17T04:28:32.440Z,99668.88
2022-10-17T04:31:02.183Z,99668.50
2022-10-17T04:33:30.965Z,99688.16
2022-10-17T04:36:00.138Z,99695.28
2022-10-17T04:38:29.509Z,99674.97
2022-10-17T04:40:59.051Z,99665.66
2022-10-17T04:43:28.598Z,99682.09
2022-10-17T04:45:58.595Z,99695.06
2022-10-17T04:48:27.117Z,99701.56
2022-10-17T04:50:56.261Z,99662.97
2022-10-17T04:53:25.344Z,99706.03
2022-10-17T04:55:53.552Z,99711.50
2022-10-17T04:58:22.267Z,99738.72
2022-10-17T05:00:52.181Z,99737.31
2022-10-17T05:03:20.632Z,99747.28
2022-10-17T05:05:48.752Z,99743.41
2022-10-17T05:08:16.933Z,99765.94
2022-10-17T05:10:47.257Z,99752.31
2022-10-17T05:13:15.704Z,99748.25
2022-10-17T05:15:43.819Z,99758.22
2022-10-17T05:18:13.383Z,99761.88
2022-10-17T05:20:41.502Z,99781.75
2022-10-17T05:23:09.700Z,99812.84
2022-10-17T05:25:37.868Z,99803.69
2022-10-17T05:28:06.040Z,99807.50
2022-10-17T05:30:37.493Z,99808.50
2022-10-17T05:33:05.840Z,99829.63
2022-10-17T05:35:35.287Z,99811.34
2022-10-17T05:38:03.483Z,99836.72
2022-10-17T05:40:31.683Z,99817.66
2022-10-17T05:42:59.869Z,99822.94
2022-10-17T05:45:28.013Z,99825.56
2022-10-17T05:47:56.179Z,99842.63
2022-10-17T05:50:25.400Z,99838.34
2022-10-17T05:52:56.188Z,99838.56
2022-10-17T05:55:24.688Z,99834.28
2022-10-17T05:57:54.091Z,99837.75
2022-10-17T06:00:23.003Z,99864.94
2022-10-17T06:02:51.188Z,99865.56
2022-10-17T06:05:19.678Z,99877.75
2022-10-17T06:07:49.223Z,99890.09
2022-10-17T06:10:18.839Z,99904.53
2022-10-17T06:12:47.365Z,99904.53
2022-10-17T06:15:15.536Z,99922.22
2022-10-17T06:17:43.712Z,99912.84
2022-10-17T06:20:12.141Z,99923.41
2022-10-17T06:22:40.363Z,99946.13
2022-10-17T06:25:09.086Z,99930.50
2022-10-17T06:27:38.800Z,99937.00
2022-10-17T06:30:08.004Z,99934.75
2022-10-17T06:32:36.292Z,99939.22
2022-10-17T06:35:04.387Z,99939.63
2022-10-17T06:37:36.374Z,99938.63
2022-10-17T06:40:06.150Z,99958.94
2022-10-17T06:42:34.270Z,99943.91
2022-10-17T06:45:03.752Z,99952.63
2022-10-17T06:47:32.477Z,99963.19
2022-10-17T06:50:00.834Z,99968.69
2022-10-17T06:52:29.081Z,99970.91
2022-10-17T06:54:57.318Z,99979.84
2022-10-17T06:57:25.729Z,99979.22
2022-10-17T06:59:55.584Z,99987.16
2022-10-17T07:02:25.338Z,100012.53
2022-10-17T07:04:53.409Z,100016.34
2022-10-17T07:07:21.521Z,100033.00
2022-10-17T07:09:49.599Z,100043.38
2022-10-17T07:12:17.854Z,100041.91
2022-10-17T07:14:47.469Z,100035.63
2022-10-17T07:17:16.833Z,100050.47
2022-10-17T07:19:46.940Z,100077.69
2022-10-17T07:22:15.193Z,100070.59
2022-10-17T07:24:43.311Z,100068.97
2022-10-17T07:27:11.560Z,100088.25
2022-10-17T07:29:39.814Z,100100.44
2022-10-17T07:32:08.770Z,100106.16
2022-10-17T07:34:37.294Z,100105.13
2022-10-17T07:37:07.540Z,100125.44
2022-10-17T07:39:36.564Z,100117.97
2022-10-17T07:42:04.727Z,100144.34
2022-10-17T07:44:32.927Z,100155.34
2022-10-17T07:47:01.114Z,100152.34
2022-10-17T07:49:29.521Z,100158.06
2022-10-17T07:51:57.689Z,100156.03
2022-10-17T07:54:27.235Z,100154.88
2022-10-17T07:56:55.371Z,100177.63
2022-10-17T07:59:24.516Z,100194.06
2022-10-17T08:01:52.723Z,100191.25
2022-10-17T08:04:20.817Z,100190.44
2022-10-17T08:06:53.335Z,100190.84
2022-10-17T08:09:24.444Z,100202.69
2022-10-17T08:11:54.165Z,100177.91
2022-10-17T08:14:22.349Z,100201.28
2022-10-17T08:16:50.661Z,100197.03
2022-10-17T08:19:18.775Z,100224.25
2022-10-17T08:21:47.096Z,100228.31
2022-10-17T08:24:15.633Z,100225.69
2022-10-17T08:26:46.183Z,100242.16
2022-10-17T08:29:18.361Z,100236.50
2022-10-17T08:31:48.307Z,100250.69
2022-10-17T08:34:18.255Z,100268.47
2022-10-17T08:36:46.317Z,100257.88
2022-10-17T08:39:14.427Z,100265.00
2022-10-17T08:41:55.204Z,100265.81
2022-10-17T08:44:36.946Z,100283.72
2022-10-17T08:47:07.823Z,100292.72
2022-10-17T08:49:43.536Z,100288.06
2022-10-17T08:52:21.767Z,100300.53
2022-10-17T08:54:50.355Z,100331.03
2022-10-17T08:57:19.153Z,100320.91
2022-10-17T08:59:53.366Z,100334.34
2022-10-17T09:02:40.589Z,100349.63
2022-10-17T09:05:28.746Z,100382.78
2022-10-17T09:08:06.386Z,100353.72
2022-10-17T09:10:43.871Z,100372.66
2022-10-17T09:13:21.822Z,100376.56
2022-10-17T09:16:07.673Z,100382.91
2022-10-17T09:18:39.285Z,100369.94
2022-10-17T09:21:14.371Z,100392.09
2022-10-17T09:23:47.791Z,100385.22
2022-10-17T09:26:16.617Z,100387.06
2022-10-17T09:28:53.482Z,100397.47
2022-10-17T09:31:26.951Z,100395.22
2022-10-17T09:33:58.271Z,100406.25
2022-10-17T09:36:30.692Z,100423.75
2022-10-17T09:39:01.566Z,100436.03
2022-10-17T09:41:51.281Z,100437.28
2022-10-17T09:44:23.018Z,100455.00
2022-10-17T09:47:07.359Z,100453.19
2022-10-17T09:49:37.143Z,100472.78
2022-10-17T09:52:10.273Z,100464.75
2022-10-17T09:54:45.084Z,100478.84
2022-10-17T09:57:15.084Z,100490.06
2022-10-17T09:59:45.367Z,100492.31
2022-10-17T10:02:40.970Z,100512.72
2022-10-17T10:05:18.044Z,100512.59
2022-10-17T10:08:02.623Z,100521.78
2022-10-17T10:10:32.446Z,100534.25
2022-10-17T10:13:06.526Z,100541.63
2022-10-17T10:15:38.862Z,100558.75
2022-10-17T10:21:12.630Z,100578.63
2022-10-17T10:23:41.989Z,100579.94
2022-10-17T10:26:25.282Z,100590.63
2022-10-17T10:29:00.156Z,100586.38
2022-10-17T10:31:37.342Z,100601.88
2022-10-17T10:34:19.731Z,100606.34
2022-10-17T10:36:56.493Z,100627.03
2022-10-17T10:39:31.925Z,100637.03
2022-10-17T10:42:01.224Z,100642.97
2022-10-17T10:44:31.587Z,100647.72
2022-10-17T10:47:19.527Z,100660.63
2022-10-17T10:49:49.498Z,100679.47
2022-10-17T10:52:24.115Z,100683.59
2022-10-17T10:55:00.676Z,100686.28
2022-10-17T10:57:32.248Z,100698.38
2022-10-17T11:00:08.047Z,100705.13
2022-10-17T11:02:41.906Z,100713.09
2022-10-17T11:05:18.302Z,100728.47
2022-10-17T11:07:53.483Z,100712.38
2022-10-17T11:10:27.944Z,100738.34
2022-10-17T11:13:01.823Z,100752.84
2022-10-17T11:15:38.170Z,100751.84
2022-10-17T11:18:11.028Z,100773.91
2022-10-17T11:20:52.492Z,100775.81
2022-10-17T11:23:35.513Z,100787.47
2022-10-17T11:26:07.778Z,100806.31
2022-10-17T11:28:36.115Z,100799.19
2022-10-17T11:31:09.247Z,100803.53
2022-10-17T11:33:46.956Z,100802.72
2022-10-17T11:36:20.917Z,100831.34
2022-10-17T11:38:53.877Z,100825.22
2022-10-17T11:41:27.988Z,100851.41
2022-10-17T11:43:59.774Z,100845.88
2022-10-17T11:46:29.653Z,100869.41
2022-10-17T11:49:05.406Z,100864.47
2022-10-17T11:54:34.632Z,100907.66
2022-10-17T11:57:23.314Z,100918.50
2022-10-17T12:00:04.435Z,100912.38
2022-10-17T12:02:40.715Z,100927.94
2022-10-17T12:05:23.004Z,100928.75
2022-10-17T12:08:00.775Z,100944.72
2022-10-17T12:10:41.282Z,100950.03
2022-10-17T12:13:43.053Z,100932.44
2022-10-17T12:16:25.830Z,100963.75
2022-10-17T12:19:34.375Z,100953.72
2022-10-17T12:22:18.882Z,100970.91
2022-10-17T12:24:56.867Z,100986.47
2022-10-17T12:27:38.612Z,100985.25
2022-10-17T12:30:17.607Z,100977.69
2022-10-17T12:33:05.240Z,100957.03
2022-10-17T12:35:36.978Z,100985.28
2022-10-17T12:38:23.263Z,100982.41
2022-10-17T12:41:04.564Z,100974.66
2022-10-17T12:46:51.132Z,100997.34
2022-10-17T12:49:39.102Z,100995.94
2022-10-17T12:52:49.185Z,101002.50
2022-10-17T12:55:19.332Z,101049.31
2022-10-17T12:57:58.758Z,101044.41
2022-10-17T13:00:33.598Z,101065.47
2022-10-17T13:03:14.038Z,101042.56
2022-10-17T13:05:51.098Z,101066.50
2022-10-17T13:08:24.054Z,101076.09
2022-10-17T13:10:55.007Z,101077.75
2022-10-17T13:13:36.971Z,101063.84
2022-10-17T13:16:05.495Z,101096.19
2022-10-17T13:18:33.637Z,101078.38
2022-10-17T13:21:03.634Z,101081.88
2022-10-17T13:23:34.409Z,101103.56
2022-10-17T13:26:15.667Z,101092.94
2022-10-17T13:28:45.578Z,101124.06
2022-10-17T13:31:31.708Z,101116.44
2022-10-17T13:34:01.236Z,101131.16
2022-10-17T13:36:31.690Z,101144.69
2022-10-17T13:39:02.119Z,101153.91
2022-10-17T13:41:36.184Z,101176.00
2022-10-17T13:44:15.277Z,101164.75
2022-10-17T13:46:45.134Z,101171.88
2022-10-17T13:49:22.174Z,101177.34
2022-10-17T13:51:55.144Z,101188.63
2022-10-17T13:54:48.480Z,101182.03
2022-10-17T13:57:20.975Z,101191.41
2022-10-17T13:59:53.277Z,101193.47
2022-10-17T14:02:25.135Z,101211.06
2022-10-17T14:05:19.652Z,101219.16
2022-10-17T14:10:43.951Z,101223.63
2022-10-17T14:13:23.046Z,101234.19
2022-10-17T14:15:55.824Z,101227.19
2022-10-17T14:18:29.917Z,101245.53
2022-10-17T14:23:53.876Z,101259.34
2022-10-17T14:26:23.904Z,101280.16
2022-10-17T14:29:04.301Z,101285.19
2022-10-17T14:31:35.290Z,101298.03
2022-10-17T14:34:05.606Z,101326.38
2022-10-17T14:36:38.764Z,101329.41
2022-10-17T14:39:14.327Z,101334.41
2022-10-17T14:41:45.730Z,101341.09
2022-10-17T14:44:24.044Z,101360.44
2022-10-17T14:46:57.990Z,101393.69
2022-10-17T14:49:38.514Z,101391.59
2022-10-17T14:52:22.278Z,101410.38
2022-10-17T14:54:51.352Z,101409.44
2022-10-17T14:57:21.295Z,101430.25
2022-10-17T14:59:54.257Z,101405.50
2022-10-17T15:02:25.294Z,101427.75
2022-10-17T15:04:53.630Z,101412.19
2022-10-17T15:07:22.391Z,101424.00
2022-10-17T15:09:52.009Z,101416.22
2022-10-17T15:12:22.663Z,101439.16
2022-10-17T15:14:51.860Z,101428.47
2022-10-17T15:17:22.468Z,101424.81
2022-10-17T15:19:52.025Z,101442.94
2022-10-17T15:22:20.145Z,101456.38
2022-10-17T15:24:48.499Z,101464.34
2022-10-17T15:27:18.109Z,101452.28
2022-10-17T15:29:46.722Z,101450.44
2022-10-17T15:32:15.201Z,101455.09
2022-10-17T15:34:43.838Z,101451.81
2022-10-17T15:37:21.016Z,101460.94
2022-10-17T15:39:53.410Z,101461.31
2022-10-17T15:42:23.258Z,101474.31
2022-10-17T15:44:51.479Z,101482.44
2022-10-17T15:47:28.370Z,101483.16
2022-10-17T15:49:57.010Z,101483.50
2022-10-17T15:52:26.948Z,101505.25
2022-10-17T15:54:57.415Z,101504.91
2022-10-17T15:57:30.586Z,101512.03
2022-10-17T16:00:00.889Z,101504.63
2022-10-17T16:02:29.264Z,101507.44
2022-10-17T16:04:57.469Z,101520.91
2022-10-17T16:07:27.215Z,101512.97
2022-10-17T16:09:55.400Z,101521.94
2022-10-17T16:12:29.135Z,101527.75
2022-10-17T16:14:57.412Z,101537.34
2022-10-17T16:17:25.701Z,101536.53
2022-10-17T16:19:53.773Z,101543.38
2022-10-17T16:22:26.608Z,101549.03
2022-10-17T16:24:59.291Z,101553.69
2022-10-17T16:27:27.911Z,101561.81
2022-10-17T16:29:56.062Z,101574.25
2022-10-17T16:32:24.236Z,101568.28
2022-10-17T16:34:52.500Z,101578.06
2022-10-17T16:37:20.575Z,101586.22
2022-10-17T16:39:52.645Z,101588.53
2022-10-17T16:42:23.025Z,101594.47
2022-10-17T16:44:52.801Z,101595.97
2022-10-17T16:47:21.118Z,101601.47
2022-10-17T16:49:49.248Z,101589.03
2022-10-17T16:52:17.466Z,101601.97
2022-10-17T16:54:45.684Z,101603.13
2022-10-17T16:57:13.932Z,101603.47
2022-10-17T16:59:43.549Z,101607.94
2022-10-17T17:02:12.381Z,101599.19
2022-10-17T17:04:40.694Z,101610.16
2022-10-17T17:07:08.861Z,101613.94
2022-10-17T17:09:37.129Z,101611.31
2022-10-17T17:12:05.485Z,101613.13
2022-10-17T17:14:33.619Z,101607.22
2022-10-17T17:17:03.305Z,101613.31
2022-10-17T17:19:31.532Z,101607.06
2022-10-17T17:21:59.652Z,101611.53
2022-10-17T17:24:28.308Z,101617.16
2022-10-17T17:26:57.588Z,101609.72
2022-10-17T17:29:26.308Z,101619.50
2022-10-17T17:31:55.187Z,101622.63
2022-10-17T17:34:24.840Z,101622.31
2022-10-17T17:36:52.921Z,101622.31
2022-10-17T17:39:21.139Z,101623.81
2022-10-17T17:41:49.225Z,101635.41
2022-10-17T17:44:17.388Z,101627.44
2022-10-17T17:46:46.847Z,101632.94
2022-10-17T17:49:15.291Z,101638.03
2022-10-17T17:51:46.672Z,101648.13
2022-10-17T17:54:15.236Z,101642.34
2022-10-17T17:56:43.359Z,101649.63
2022-10-17T17:59:13.440Z,101650.63
2022-10-17T18:01:42.015Z,101658.88
2022-10-17T18:04:10.616Z,101664.34
2022-10-17T18:06:39.954Z,101657.56
2022-10-17T18:09:10.673Z,101651.59
2022-10-17T18:11:39.524Z,101653.75
2022-10-17T18:14:11.840Z,101661.84
2022-10-17T18:16:40.004Z,101655.22
2022-10-17T18:19:09.932Z,101667.13
2022-10-17T18:21:38.854Z,101670.78
2022-10-17T18:24:07.756Z,101670.88
2022-10-17T18:26:37.338Z,101677.34
2022-10-17T18:29:05.680Z,101678.47
2022-10-17T18:31:35.979Z,101679.66
2022-10-17T18:34:06.300Z,101681.59
2022-10-17T18:36:37.718Z,101676.47
2022-10-17T18:39:06.522Z,101694.19
2022-10-17T18:41:36.068Z,101686.56
2022-10-17T18:44:04.440Z,101689.38
2022-10-17T18:46:36.528Z,101693.16
2022-10-17T18:49:04.814Z,101701.25
2022-10-17T18:51:33.197Z,101699.91
2022-10-17T18:54:02.431Z,101705.38
2022-10-17T18:56:31.471Z,101708.34
2022-10-17T18:59:01.540Z,101714.78
2022-10-17T19:01:29.968Z,101706.03
2022-10-17T19:04:00.299Z,101714.28
2022-10-17T19:06:31.835Z,101717.91
2022-10-17T19:09:00.362Z,101722.84
2022-10-17T19:11:30.361Z,101729.91
2022-10-17T19:14:02.545Z,101734.38
2022-10-17T19:16:33.952Z,101736.91
2022-10-17T19:19:04.809Z,101746.94
2022-10-17T19:21:33.311Z,101759.34
2022-10-17T19:24:02.661Z,101754.72
2022-10-17T19:26:32.988Z,101759.88
2022-10-17T19:29:03.546Z,101758.88
2022-10-17T19:31:33.060Z,101766.94
2022-10-17T19:34:02.058Z,101767.94
2022-10-17T19:36:33.641Z,101778.00
2022-10-17T19:39:03.488Z,101776.34
2022-10-17T19:41:31.744Z,101784.28
2022-10-17T19:44:02.518Z,101782.78
2022-10-17T19:46:31.856Z,101797.97
2022-10-17T19:49:00.145Z,101794.84
2022-10-17T19:51:29.395Z,101803.06
2022-10-17T19:54:00.423Z,101812.13
2022-10-17T19:56:30.148Z,101823.78
2022-10-17T19:58:58.902Z,101826.59
2022-10-17T20:01:30.726Z,101829.38
2022-10-17T20:03:58.957Z,101844.41
2022-10-17T20:06:27.828Z,101848.03
2022-10-17T20:08:56.116Z,101862.41
2022-10-17T20:11:26.187Z,101868.66
2022-10-17T20:13:55.442Z,101873.25
2022-10-17T20:16:25.448Z,101884.13
2022-10-17T20:18:57.446Z,101894.69
2022-10-17T20:21:28.654Z,101895.97
2022-10-17T20:23:57.107Z,101902.25
2022-10-17T20:26:37.717Z,101904.34
2022-10-17T20:29:11.210Z,101903.53
2022-10-17T20:31:40.868Z,101900.38
2022-10-17T20:34:12.676Z,101909.44
2022-10-17T20:36:41.207Z,101907.78
2022-10-17T20:39:11.043Z,101916.69
2022-10-17T20:41:39.295Z,101926.56
2022-10-17T20:44:08.060Z,101917.25
2022-10-17T20:46:39.675Z,101925.50
2022-10-17T20:49:17.223Z,101946.09
2022-10-17T20:51:45.660Z,101948.19
2022-10-17T20:54:14.608Z,101949.34
2022-10-17T20:56:42.924Z,101953.25
2022-10-17T20:59:17.595Z,101957.97
2022-10-17T21:01:47.036Z,101965.25
2022-10-17T21:04:44.221Z,101963.53
2022-10-17T21:07:05.057Z,101970.97
2022-10-17T21:09:33.309Z,101979.00
2022-10-17T21:14:36.499Z,101990.56
2022-10-17T21:17:05.692Z,101992.59
2022-10-17T21:19:35.667Z,101991.94
2022-10-17T21:22:03.845Z,101992.91
2022-10-17T21:24:32.523Z,101986.09
2022-10-17T21:27:00.820Z,101988.91
2022-10-17T21:29:28.935Z,101990.00
2022-10-17T21:31:57.196Z,102000.56
2022-10-17T21:34:25.730Z,102002.53
2022-10-17T21:36:55.486Z,102007.81
2022-10-17T21:39:24.935Z,102009.63
2022-10-17T21:41:54.265Z,102011.72
2022-10-17T21:44:24.098Z,102015.34
2022-10-17T21:46:52.577Z,102023.25
2022-10-17T21:49:22.489Z,102026.84
2022-10-17T21:51:51.614Z,102042.00
2022-10-17T21:54:23.120Z,102039.53
2022-10-17T21:56:51.499Z,102040.34
2022-10-17T21:59:19.773Z,102049.53
2022-10-17T22:01:47.946Z,102042.84
2022-10-17T22:04:17.713Z,102044.94
2022-10-17T22:06:51.190Z,102048.13
2022-10-17T22:09:23.450Z,102055.06
2022-10-17T22:11:53.662Z,102054.56
2022-10-17T22:14:24.010Z,102064.25
2022-10-17T22:16:52.144Z,102067.59
2022-10-17T22:19:22.573Z,102068.56
2022-10-17T22:21:51.200Z,102081.78
2022-10-17T22:24:22.688Z,102074.97
2022-10-17T22:26:51.310Z,102070.81
2022-10-17T22:29:19.751Z,102069.41
2022-10-17T22:31:47.837Z,102067.88
2022-10-17T22:34:17.873Z,102076.78
2022-10-17T22:36:47.861Z,102081.22
2022-10-17T22:39:15.998Z,102079.56
2022-10-17T22:41:45.778Z,102079.56
2022-10-17T22:44:13.985Z,102073.72
2022-10-17T22:46:42.116Z,102078.03
2022-10-17T22:49:10.549Z,102078.03
2022-10-17T22:51:38.787Z,102074.72
2022-10-17T22:54:07.002Z,102089.00
2022-10-17T22:56:35.103Z,102090.41
2022-10-17T22:59:05.107Z,102087.59
2022-10-17T23:01:33.337Z,102087.59
2022-10-17T23:04:01.669Z,102078.19
2022-10-17T23:06:29.820Z,102080.94
2022-10-17T23:08:57.995Z,102085.78
2022-10-17T23:11:26.270Z,102084.13
2022-10-17T23:13:54.378Z,102082.59
2022-10-17T23:16:23.959Z,102072.19
2022-10-17T23:18:52.038Z,102085.69
2022-10-17T23:21:20.173Z,102081.50
2022-10-17T23:23:48.182Z,102076.63
2022-10-17T23:26:16.542Z,102091.88
2022-10-17T23:28:44.726Z,102086.75
2022-10-17T23:31:15.585Z,102091.22
2022-10-17T23:33:46.429Z,102083.41
2022-10-17T23:36:16.241Z,102092.31
2022-10-17T23:38:46.276Z,102089.81
2022-10-17T23:41:15.372Z,102087.31
2022-10-17T23:43:43.950Z,102094.50
2022-10-17T23:46:12.728Z,102085.22
2022-10-17T23:48:41.325Z,102085.22
2022-10-17T23:51:11.997Z,102089.78
2022-10-17T23:53:41.380Z,102080.47
2022-10-17T23:56:10.628Z,102082.28
2022-10-17T23:58:39.600Z,102093.66
